Time;durP1;ratioP1;P1;durP2;ratioP2;P2;SDS_P1;SDS_P2;PMS_P1;PMS_P2;Temp;Humidity;BMP_temperature;BMP_pressure;BME280_temperature;BME280_humidity;BME280_pressure;Samples;Min_cycle;Max_cycle;Signal;HPM_P1;HPM_P2
2023/05/16 00:00:26;;;;;;;16.67;2.53;;;7.80;99.90;;;;;;5132122;27;20039;-58
2023/05/16 00:02:52;;;;;;;15.13;2.25;;;7.80;99.90;;;;;;5132211;27;20233;-58
2023/05/16 00:05:18;;;;;;;14.30;2.15;;;7.70;99.90;;;;;;5114340;27;20126;-57
2023/05/16 00:07:46;;;;;;;13.93;2.47;;;9.80;99.90;;;;;;5114607;27;20133;-58
2023/05/16 00:10:12;;;;;;;19.17;2.50;;;7.70;99.90;;;;;;5133771;27;20043;-57
2023/05/16 00:12:38;;;;;;;21.65;3.75;;;8.30;99.90;;;;;;5132605;27;20035;-57
2023/05/16 00:15:09;;;;;;;21.75;3.55;;;7.90;99.90;;;;;;5131018;27;20081;-57
2023/05/16 00:17:35;;;;;;;12.90;1.92;;;7.70;99.90;;;;;;5113172;27;20034;-58
2023/05/16 00:20:09;;;;;;;15.32;2.22;;;7.80;99.90;;;;;;5132164;27;20669;-58
2023/05/16 00:22:36;;;;;;;18.35;2.88;;;7.70;99.90;;;;;;5131500;27;20038;-58
2023/05/16 00:25:02;;;;;;;27.70;3.70;;;9.30;99.90;;;;;;5131447;27;20046;-57
2023/05/16 00:27:28;;;;;;;13.07;2.47;;;7.70;99.90;;;;;;5130676;27;20045;-57
2023/05/16 00:29:54;;;;;;;16.75;2.10;;;7.60;99.90;;;;;;5130740;27;20552;-57
2023/05/16 00:32:20;;;;;;;15.18;2.42;;;8.20;99.90;;;;;;5131384;27;20045;-57
2023/05/16 00:34:46;;;;;;;16.20;2.38;;;9.30;99.90;;;;;;5129905;27;20034;-57
2023/05/16 00:37:12;;;;;;;12.70;2.58;;;7.90;99.90;;;;;;5130962;27;20034;-57
2023/05/16 00:39:38;;;;;;;18.45;2.88;;;7.60;99.90;;;;;;5130727;27;20047;-57
2023/05/16 00:42:04;;;;;;;13.77;1.80;;;7.70;99.90;;;;;;5113886;27;20057;-57
2023/05/16 00:44:30;;;;;;;12.32;2.60;;;7.70;99.90;;;;;;5129729;27;20034;-58
2023/05/16 00:46:57;;;;;;;23.05;2.75;;;7.80;99.90;;;;;;5132156;27;20059;-57
2023/05/16 00:49:23;;;;;;;12.73;2.17;;;7.60;99.90;;;;;;5132402;27;20438;-57
2023/05/16 00:51:50;;;;;;;12.18;2.10;;;8.30;99.90;;;;;;5133105;27;20146;-58
2023/05/16 00:54:15;;;;;;;16.77;3.25;;;7.70;99.90;;;;;;5130616;27;20786;-57
2023/05/16 00:56:41;;;;;;;16.20;2.17;;;7.70;99.90;;;;;;5130228;27;20141;-57
2023/05/16 00:59:07;;;;;;;25.40;3.20;;;7.60;99.90;;;;;;5131527;27;20039;-57
2023/05/16 01:01:35;;;;;;;12.07;1.63;;;9.40;99.90;;;;;;5130909;27;20031;-57
2023/05/16 01:04:01;;;;;;;16.70;2.40;;;7.70;99.90;;;;;;5129121;27;20153;-57
2023/05/16 01:06:27;;;;;;;16.50;2.30;;;8.00;99.90;;;;;;5130846;27;20052;-57
2023/05/16 01:08:52;;;;;;;17.42;2.33;;;7.80;99.90;;;;;;5132715;27;20122;-57
2023/05/16 01:11:24;;;;;;;18.27;1.90;;;7.90;99.90;;;;;;5131551;27;20457;-57
2023/05/16 01:14:02;;;;;;;16.02;2.65;;;7.80;99.90;;;;;;5131517;27;20115;-57
2023/05/16 01:16:50;;;;;;;14.45;2.00;;;7.70;99.90;;;;;;5132111;27;20039;-58
2023/05/16 01:19:42;;;;;;;15.60;2.22;;;7.60;99.90;;;;;;5131294;27;20495;-57
2023/05/16 01:22:20;;;;;;;17.02;2.08;;;7.80;99.90;;;;;;5135102;27;20046;-57
2023/05/16 01:24:58;;;;;;;19.27;3.08;;;7.70;99.90;;;;;;5130928;27;20036;-57
2023/05/16 01:27:26;;;;;;;15.27;2.22;;;7.70;99.90;;;;;;5129510;27;20173;-57
2023/05/16 01:29:55;;;;;;;18.58;2.45;;;7.60;99.90;;;;;;5112876;27;20054;-58
2023/05/16 01:32:21;;;;;;;16.90;2.42;;;7.80;99.90;;;;;;5130600;27;20066;-58
2023/05/16 01:34:49;;;;;;;18.17;3.30;;;8.20;99.90;;;;;;5096719;27;20043;-57
2023/05/16 01:37:34;;;;;;;14.82;1.95;;;7.70;99.90;;;;;;5131283;27;20045;-57
2023/05/16 01:40:08;;;;;;;16.42;2.03;;;7.50;99.90;;;;;;5130349;27;20487;-57
2023/05/16 01:42:38;;;;;;;12.77;2.10;;;7.60;99.90;;;;;;5111354;27;20053;-57
2023/05/16 01:45:13;;;;;;;18.08;2.15;;;7.50;99.90;;;;;;5129737;27;22064;-57
2023/05/16 01:47:43;;;;;;;12.27;1.90;;;7.50;99.90;;;;;;5134212;27;20103;-57
2023/05/16 01:50:16;;;;;;;18.55;2.35;;;7.00;99.90;;;;;;5133848;27;20522;-57
2023/05/16 01:52:51;;;;;;;15.10;3.03;;;7.50;99.90;;;;;;5135592;27;20046;-57
2023/05/16 01:55:43;;;;;;;14.65;1.80;;;7.60;99.90;;;;;;5134176;27;20348;-57
2023/05/16 01:58:10;;;;;;;16.00;2.55;;;7.40;99.90;;;;;;5133468;27;20509;-57
2023/05/16 02:00:35;;;;;;;11.82;2.08;;;7.50;99.90;;;;;;5114727;27;20073;-57
2023/05/16 02:03:01;;;;;;;15.80;2.00;;;7.40;99.90;;;;;;5136164;27;20042;-57
2023/05/16 02:05:27;;;;;;;17.58;3.10;;;9.30;99.90;;;;;;5133324;27;20138;-57
2023/05/16 02:11:24;;;;;;;10.25;1.90;;;7.20;99.90;;;;;;5140580;27;20039;-58
2023/05/16 02:13:50;;;;;;;16.60;2.55;;;7.40;99.90;;;;;;5122714;27;20046;-57
2023/05/16 02:16:16;;;;;;;13.35;1.90;;;7.20;99.90;;;;;;5139679;27;20045;-57
2023/05/16 02:18:43;;;;;;;15.95;2.00;;;7.40;99.90;;;;;;5142453;27;20039;-57
2023/05/16 02:21:09;;;;;;;15.85;2.83;;;7.30;99.90;;;;;;5122380;27;20095;-57
2023/05/16 02:23:35;;;;;;;11.23;2.28;;;7.20;99.90;;;;;;5135444;27;20046;-57
2023/05/16 02:26:01;;;;;;;13.77;2.15;;;7.20;99.90;;;;;;5132640;27;20200;-57
2023/05/16 02:28:26;;;;;;;14.43;2.75;;;9.30;99.90;;;;;;5134253;27;20197;-58
2023/05/16 02:30:57;;;;;;;10.32;2.08;;;8.10;99.90;;;;;;5134182;27;20039;-57
2023/05/16 02:33:23;;;;;;;13.55;1.92;;;7.70;99.90;;;;;;5135025;27;20068;-57
2023/05/16 02:35:49;;;;;;;14.55;2.20;;;7.00;99.90;;;;;;5133093;27;20096;-57
2023/05/16 02:38:16;;;;;;;13.23;2.22;;;6.90;99.90;;;;;;5133628;27;20761;-57
2023/05/16 02:40:42;;;;;;;15.45;3.53;;;7.00;99.90;;;;;;5133859;27;20114;-57
2023/05/16 02:43:08;;;;;;;21.70;2.63;;;8.80;99.90;;;;;;5115474;27;20047;-57
2023/05/16 02:45:34;;;;;;;11.40;2.17;;;6.90;99.90;;;;;;5132426;27;20065;-57
2023/05/16 02:47:59;;;;;;;14.70;2.05;;;7.00;99.90;;;;;;5133457;27;20042;-57
2023/05/16 02:50:25;;;;;;;12.13;1.85;;;8.40;99.90;;;;;;5133270;27;20074;-57
2023/05/16 02:52:51;;;;;;;16.38;2.15;;;7.70;99.90;;;;;;5135524;27;20459;-57
2023/05/16 02:55:17;;;;;;;9.18;1.65;;;8.30;99.90;;;;;;5133031;27;20039;-57
2023/05/16 02:57:42;;;;;;;20.80;2.97;;;6.70;99.90;;;;;;5134260;27;20042;-57
2023/05/16 03:00:10;;;;;;;14.88;2.85;;;7.60;99.90;;;;;;5132064;27;20042;-57
2023/05/16 03:02:36;;;;;;;14.93;2.15;;;6.50;99.90;;;;;;5114456;27;20046;-57
2023/05/16 03:05:03;;;;;;;15.45;2.72;;;6.60;99.90;;;;;;5132944;27;20046;-57
2023/05/16 03:07:29;;;;;;;12.88;2.30;;;7.70;99.90;;;;;;5131904;27;20043;-57
2023/05/16 03:09:55;;;;;;;16.95;3.17;;;6.70;99.90;;;;;;5114575;27;20091;-57
2023/05/16 03:12:20;;;;;;;11.15;2.17;;;6.80;99.90;;;;;;5112726;27;20039;-57
2023/05/16 03:14:46;;;;;;;14.52;2.67;;;6.70;99.90;;;;;;5132477;27;20070;-58
2023/05/16 03:17:12;;;;;;;14.90;2.50;;;8.30;99.90;;;;;;5133577;27;20050;-58
2023/05/16 03:19:38;;;;;;;12.73;2.25;;;8.00;99.90;;;;;;5132560;27;20051;-57
2023/05/16 03:22:04;;;;;;;11.70;1.90;;;6.70;99.90;;;;;;5133151;27;20051;-57
2023/05/16 03:24:29;;;;;;;16.27;2.42;;;7.50;99.90;;;;;;5133050;27;21100;-57
2023/05/16 03:26:55;;;;;;;13.35;1.88;;;6.50;99.90;;;;;;5131534;27;20038;-57
2023/05/16 03:29:21;;;;;;;19.63;3.00;;;8.30;99.90;;;;;;5130485;27;20440;-57
2023/05/16 03:31:47;;;;;;;17.80;2.40;;;6.50;99.90;;;;;;5132355;27;20759;-57
2023/05/16 03:34:12;;;;;;;15.63;1.67;;;6.50;99.90;;;;;;5132452;27;20113;-57
2023/05/16 03:36:40;;;;;;;13.30;2.65;;;7.80;99.90;;;;;;5132669;27;20591;-57
2023/05/16 03:39:07;;;;;;;14.75;1.92;;;6.70;99.90;;;;;;5130733;27;20589;-57
2023/05/16 03:41:33;;;;;;;13.88;2.72;;;6.80;99.90;;;;;;5131781;27;20042;-57
2023/05/16 03:43:59;;;;;;;13.98;2.17;;;6.80;99.90;;;;;;5132257;27;20050;-58
2023/05/16 03:46:25;;;;;;;14.05;2.40;;;9.00;99.90;;;;;;5131892;27;20039;-57
2023/05/16 03:48:51;;;;;;;14.05;2.60;;;6.70;99.90;;;;;;5130909;27;20063;-57
2023/05/16 03:51:16;;;;;;;20.23;3.33;;;6.90;99.90;;;;;;5133856;27;20043;-58
2023/05/16 03:53:42;;;;;;;19.02;2.33;;;6.70;99.90;;;;;;5133726;27;20054;-57
2023/05/16 03:56:08;;;;;;;15.45;1.90;;;6.80;99.90;;;;;;5131876;27;20487;-57
2023/05/16 03:58:33;;;;;;;15.70;2.50;;;6.70;99.90;;;;;;5131418;27;20080;-57
2023/05/16 04:00:59;;;;;;;9.02;1.83;;;7.80;99.90;;;;;;5133236;27;20084;-56
2023/05/16 04:03:27;;;;;;;15.98;2.38;;;7.00;99.90;;;;;;5130651;27;20118;-57
2023/05/16 04:05:54;;;;;;;11.43;2.00;;;6.80;99.90;;;;;;5131001;27;20065;-57
2023/05/16 04:08:20;;;;;;;12.02;2.40;;;7.40;99.90;;;;;;5131399;27;20104;-56
2023/05/16 04:10:46;;;;;;;14.32;2.92;;;8.90;99.90;;;;;;5132753;27;20491;-57
2023/05/16 04:13:14;;;;;;;14.85;2.15;;;6.70;99.90;;;;;;5130921;27;20055;-57
2023/05/16 04:15:39;;;;;;;14.35;2.08;;;6.70;99.90;;;;;;5113844;27;20448;-57
2023/05/16 04:18:05;;;;;;;12.20;1.70;;;6.80;99.90;;;;;;5131702;27;20089;-56
2023/05/16 04:20:31;;;;;;;16.63;2.20;;;6.60;99.90;;;;;;5133220;27;20138;-56
2023/05/16 04:22:56;;;;;;;12.43;1.80;;;6.80;99.90;;;;;;5131756;27;20042;-57
2023/05/16 04:25:22;;;;;;;16.63;2.30;;;7.60;99.90;;;;;;5130781;27;20368;-56
2023/05/16 04:27:48;;;;;;;13.68;2.13;;;9.10;99.90;;;;;;5113155;27;20403;-57
2023/05/16 04:30:13;;;;;;;12.68;2.30;;;8.60;99.90;;;;;;5096791;27;20038;-57
2023/05/16 04:32:39;;;;;;;18.73;2.38;;;6.80;99.90;;;;;;5130619;27;20572;-55
2023/05/16 04:35:08;;;;;;;12.98;2.00;;;7.30;99.90;;;;;;5130495;27;20066;-57
2023/05/16 04:37:34;;;;;;;12.25;1.92;;;6.80;99.90;;;;;;5111838;27;20044;-57
2023/05/16 04:40:00;;;;;;;15.02;1.85;;;6.80;99.90;;;;;;5130508;27;20283;-57
2023/05/16 04:42:26;;;;;;;16.30;2.35;;;6.70;99.90;;;;;;5130935;27;20095;-56
2023/05/16 04:44:52;;;;;;;11.23;1.85;;;7.30;99.90;;;;;;5130320;27;20051;-57
2023/05/16 04:47:18;;;;;;;13.07;2.45;;;6.90;99.90;;;;;;5133011;27;20575;-57
2023/05/16 04:49:43;;;;;;;9.77;2.55;;;6.90;99.90;;;;;;5131056;27;20415;-57
2023/05/16 04:52:10;;;;;;;10.80;2.00;;;7.10;99.90;;;;;;5132562;27;20071;-57
2023/05/16 04:54:37;;;;;;;14.60;2.00;;;7.20;99.90;;;;;;5131836;27;20039;-57
2023/05/16 04:57:03;;;;;;;15.65;2.42;;;7.20;99.90;;;;;;5112510;27;20046;-57
2023/05/16 04:59:29;;;;;;;9.73;1.88;;;7.00;99.90;;;;;;5130793;27;20091;-56
2023/05/16 05:01:54;;;;;;;12.70;1.95;;;7.30;99.90;;;;;;5129830;27;20145;-57
2023/05/16 05:04:21;;;;;;;11.57;1.80;;;7.30;99.90;;;;;;5131300;27;20066;-56
2023/05/16 05:06:47;;;;;;;13.27;2.28;;;7.80;99.90;;;;;;5130529;27;20061;-57
2023/05/16 05:09:13;;;;;;;13.27;1.75;;;7.60;99.90;;;;;;5109070;27;20039;-57
2023/05/16 05:11:39;;;;;;;14.32;1.98;;;8.10;99.90;;;;;;5131440;27;20474;-57
2023/05/16 05:14:04;;;;;;;11.38;2.15;;;7.80;99.90;;;;;;5131839;27;20129;-57
2023/05/16 05:16:30;;;;;;;11.70;2.03;;;8.00;99.90;;;;;;5112768;27;20034;-57
2023/05/16 05:18:57;;;;;;;12.90;1.83;;;8.20;99.90;;;;;;5132838;27;20085;-57
2023/05/16 05:21:24;;;;;;;11.57;3.20;;;9.80;99.90;;;;;;5115405;27;20502;-57
2023/05/16 05:23:50;;;;;;;12.05;1.73;;;8.50;99.90;;;;;;5138205;27;20139;-57
2023/05/16 05:26:16;;;;;;;9.77;1.45;;;8.60;99.90;;;;;;5135875;27;20042;-57
2023/05/16 05:28:42;;;;;;;14.32;1.98;;;8.80;99.90;;;;;;5135528;27;20038;-57
2023/05/16 05:31:08;;;;;;;13.02;3.10;;;8.90;99.90;;;;;;5134681;27;20536;-57
2023/05/16 05:33:34;;;;;;;12.25;1.80;;;8.80;99.90;;;;;;5134326;27;20079;-57
2023/05/16 05:35:59;;;;;;;13.98;1.60;;;9.20;99.90;;;;;;5134357;27;20134;-57
2023/05/16 05:38:25;;;;;;;12.50;1.77;;;9.40;99.90;;;;;;5134562;27;20073;-57
2023/05/16 05:40:51;;;;;;;16.10;1.80;;;9.40;99.90;;;;;;5132992;27;20037;-58
2023/05/16 05:43:17;;;;;;;15.02;1.73;;;9.40;99.90;;;;;;5117143;27;20043;-59
2023/05/16 05:45:43;;;;;;;11.65;1.60;;;10.00;99.90;;;;;;5117153;27;20442;-57
2023/05/16 05:48:09;;;;;;;14.90;2.08;;;10.10;99.90;;;;;;5135581;27;20130;-56
2023/05/16 05:50:36;;;;;;;10.50;1.75;;;9.90;99.90;;;;;;5134208;27;20081;-57
2023/05/16 05:53:02;;;;;;;11.80;1.85;;;9.80;99.90;;;;;;5136657;27;20039;-56
2023/05/16 05:55:28;;;;;;;9.68;1.77;;;10.00;99.90;;;;;;5133668;27;20046;-58
2023/05/16 05:57:54;;;;;;;15.25;1.73;;;10.10;99.90;;;;;;5133343;27;20043;-58
2023/05/16 06:00:20;;;;;;;11.80;1.98;;;10.30;99.90;;;;;;5114630;27;20559;-58
2023/05/16 06:02:46;;;;;;;17.65;2.22;;;10.60;99.90;;;;;;5135686;27;20141;-58
2023/05/16 06:05:12;;;;;;;11.05;1.60;;;10.80;99.90;;;;;;5132713;27;20482;-58
2023/05/16 06:07:38;;;;;;;13.02;1.88;;;11.20;99.90;;;;;;5134098;27;20035;-58
2023/05/16 06:10:04;;;;;;;14.00;1.80;;;11.50;99.90;;;;;;5134871;27;20376;-58
2023/05/16 06:12:30;;;;;;;8.13;1.70;;;11.50;99.90;;;;;;5115681;27;20462;-58
2023/05/16 06:14:56;;;;;;;15.13;1.40;;;11.40;99.90;;;;;;5133334;27;20031;-58
2023/05/16 06:17:22;;;;;;;6.32;1.20;;;11.20;99.90;;;;;;5135965;27;20338;-57
2023/05/16 06:19:48;;;;;;;6.53;1.20;;;11.20;99.90;;;;;;5132390;27;20043;-58
2023/05/16 06:22:13;;;;;;;9.35;1.13;;;11.10;99.90;;;;;;5133886;27;20181;-57
2023/05/16 06:24:39;;;;;;;9.07;1.52;;;11.20;99.90;;;;;;5134338;27;20487;-58
2023/05/16 06:27:06;;;;;;;8.40;1.30;;;11.40;99.90;;;;;;5134829;27;20066;-57
2023/05/16 06:29:31;;;;;;;8.13;1.40;;;11.40;99.90;;;;;;5132589;27;20042;-58
2023/05/16 06:31:57;;;;;;;6.85;1.08;;;11.50;99.90;;;;;;5132040;27;20582;-58
2023/05/16 06:34:26;;;;;;;6.47;1.05;;;11.80;99.90;;;;;;5133804;27;20563;-58
2023/05/16 06:36:53;;;;;;;8.13;1.25;;;11.90;99.90;;;;;;5134593;27;20121;-58
2023/05/16 06:39:19;;;;;;;8.18;1.35;;;12.20;99.90;;;;;;5115439;27;20039;-58
2023/05/16 06:41:44;;;;;;;5.15;0.95;;;12.40;99.90;;;;;;5134017;27;20046;-57
2023/05/16 06:44:10;;;;;;;10.15;1.67;;;12.50;99.90;;;;;;5135853;27;20357;-58
2023/05/16 06:46:37;;;;;;;8.90;1.25;;;12.30;99.90;;;;;;5117032;27;20081;-58
2023/05/16 06:49:03;;;;;;;7.35;1.55;;;12.40;99.90;;;;;;5134000;27;20031;-58
2023/05/16 06:51:30;;;;;;;6.88;1.30;;;12.80;99.90;;;;;;5134410;27;20035;-58
2023/05/16 06:53:56;;;;;;;11.55;1.65;;;13.40;99.90;;;;;;5135314;27;21573;-58
2023/05/16 06:56:22;;;;;;;9.60;1.50;;;14.40;99.90;;;;;;5136420;27;20067;-58
2023/05/16 06:58:48;;;;;;;15.73;1.67;;;13.40;99.90;;;;;;5133842;27;20138;-57
2023/05/16 07:01:15;;;;;;;9.70;1.52;;;16.30;99.90;;;;;;5134177;27;20583;-58
2023/05/16 07:03:41;;;;;;;9.55;2.20;;;17.10;99.90;;;;;;5132289;27;20059;-58
2023/05/16 07:06:06;;;;;;;8.48;1.60;;;18.00;99.90;;;;;;5100059;27;20050;-58
2023/05/16 07:08:34;;;;;;;11.27;1.98;;;18.60;99.90;;;;;;5133582;27;20506;-58
2023/05/16 07:11:00;;;;;;;10.05;1.98;;;19.40;99.90;;;;;;5134357;27;20703;-59
2023/05/16 07:13:26;;;;;;;9.65;1.95;;;19.50;99.90;;;;;;5133631;27;20035;-58
2023/05/16 07:15:52;;;;;;;9.27;1.92;;;18.90;99.90;;;;;;5134707;27;20043;-58
2023/05/16 07:18:18;;;;;;;12.20;2.00;;;17.90;99.90;;;;;;5132397;27;20042;-59
2023/05/16 07:20:44;;;;;;;11.25;1.88;;;17.50;99.90;;;;;;5133277;27;20035;-58
2023/05/16 07:23:10;;;;;;;8.05;1.77;;;18.00;99.90;;;;;;5134892;27;20062;-58
2023/05/16 07:25:36;;;;;;;10.00;1.65;;;19.20;99.90;;;;;;5116142;27;20046;-58
2023/05/16 07:28:02;;;;;;;7.80;1.73;;;19.80;99.90;;;;;;5132962;27;20043;-58
2023/05/16 07:30:28;;;;;;;10.00;1.65;;;19.40;99.90;;;;;;5133383;27;20232;-58
2023/05/16 07:32:54;;;;;;;7.63;1.63;;;19.40;99.90;;;;;;5132841;27;20054;-58
2023/05/16 07:35:20;;;;;;;8.13;1.65;;;19.30;99.90;;;;;;5113720;27;20118;-58
2023/05/16 07:37:46;;;;;;;7.53;1.95;;;19.30;99.90;;;;;;5133181;27;20537;-57
2023/05/16 07:40:13;;;;;;;7.93;1.90;;;18.20;99.90;;;;;;5133974;27;20062;-57
2023/05/16 07:42:39;;;;;;;8.75;1.85;;;17.20;99.90;;;;;;5132290;27;20462;-58
2023/05/16 07:45:06;;;;;;;10.23;1.77;;;17.40;99.90;;;;;;5113961;27;20066;-58
2023/05/16 07:47:32;;;;;;;6.25;1.45;;;17.70;99.90;;;;;;5134012;27;20043;-58
2023/05/16 07:49:58;;;;;;;8.75;1.88;;;18.30;99.90;;;;;;5132657;27;20039;-58
2023/05/16 07:52:23;;;;;;;12.13;1.88;;;18.80;99.90;;;;;;5114815;27;20144;-58
2023/05/16 07:54:49;;;;;;;11.30;2.88;;;18.90;99.90;;;;;;5133614;27;20086;-58
2023/05/16 07:57:15;;;;;;;10.52;2.08;;;17.80;99.90;;;;;;5134105;27;20051;-59
2023/05/16 07:59:42;;;;;;;11.50;2.15;;;17.50;99.90;;;;;;5132882;27;20134;-58
2023/05/16 08:02:09;;;;;;;13.20;2.00;;;18.20;99.90;;;;;;5132861;27;20049;-58
2023/05/16 08:04:35;;;;;;;7.00;1.80;;;19.50;99.90;;;;;;5132676;27;20143;-58
2023/05/16 08:07:01;;;;;;;10.57;2.00;;;18.60;99.90;;;;;;5133990;27;20511;-58
2023/05/16 08:09:27;;;;;;;9.63;1.63;;;18.40;99.90;;;;;;5133713;27;20737;-58
2023/05/16 08:11:52;;;;;;;6.20;1.45;;;18.30;99.90;;;;;;5132767;27;20065;-58
2023/05/16 08:14:18;;;;;;;7.38;1.23;;;17.50;99.90;;;;;;5107924;27;20047;-57
2023/05/16 08:16:44;;;;;;;6.32;1.33;;;16.40;99.90;;;;;;5133077;27;20035;-57
2023/05/16 08:19:10;;;;;;;8.68;1.88;;;15.90;99.90;;;;;;5133706;27;20506;-58
2023/05/16 08:21:35;;;;;;;8.35;1.50;;;15.80;99.90;;;;;;5132990;27;20049;-58
2023/05/16 08:24:01;;;;;;;8.05;1.85;;;15.80;99.90;;;;;;5133473;27;20146;-58
2023/05/16 08:26:27;;;;;;;10.15;1.70;;;15.60;99.90;;;;;;5133215;27;20053;-58
2023/05/16 08:28:52;;;;;;;13.23;1.77;;;15.80;99.90;;;;;;5134286;27;20091;-58
2023/05/16 08:31:18;;;;;;;8.90;1.55;;;15.70;99.90;;;;;;5133450;27;20182;-57
2023/05/16 08:33:44;;;;;;;8.60;1.42;;;15.80;99.90;;;;;;5131949;27;20043;-58
2023/05/16 08:36:10;;;;;;;7.55;1.58;;;15.70;99.90;;;;;;5133758;27;20079;-57
2023/05/16 08:38:36;;;;;;;9.90;1.77;;;16.10;99.90;;;;;;5132536;27;20054;-57
2023/05/16 08:41:02;;;;;;;11.77;1.83;;;16.20;99.90;;;;;;5113115;27;20175;-57
2023/05/16 08:43:28;;;;;;;8.25;1.60;;;16.00;99.90;;;;;;5132489;27;20121;-58
2023/05/16 08:45:54;;;;;;;11.70;1.70;;;15.40;99.90;;;;;;5115792;27;20045;-57
2023/05/16 08:48:23;;;;;;;12.50;1.70;;;15.20;99.90;;;;;;5133598;27;20042;-57
2023/05/16 08:50:49;;;;;;;7.45;1.58;;;15.00;99.90;;;;;;5129629;27;20049;-57
2023/05/16 08:53:20;;;;;;;11.55;1.70;;;15.00;99.90;;;;;;5133144;27;20039;-57
2023/05/16 08:55:48;;;;;;;12.52;1.95;;;14.80;99.90;;;;;;5134754;27;20164;-57
2023/05/16 08:58:14;;;;;;;7.93;1.35;;;14.10;99.90;;;;;;5138620;27;20043;-57
2023/05/16 09:00:41;;;;;;;10.93;1.50;;;13.80;99.90;;;;;;5119509;27;20043;-57
2023/05/16 09:03:07;;;;;;;9.57;1.65;;;13.90;99.90;;;;;;5138429;27;20070;-57
2023/05/16 09:05:33;;;;;;;11.35;1.63;;;14.10;99.90;;;;;;5137262;27;20042;-59
2023/05/16 09:07:59;;;;;;;7.63;1.60;;;14.90;99.90;;;;;;5137769;27;20047;-56
2023/05/16 09:10:25;;;;;;;9.38;1.95;;;15.40;99.90;;;;;;5137901;27;20030;-57
2023/05/16 09:12:51;;;;;;;9.57;1.55;;;15.40;99.90;;;;;;5137211;27;20039;-57
2023/05/16 09:15:20;;;;;;;11.27;1.75;;;15.60;99.90;;;;;;5138355;27;20055;-57
2023/05/16 09:17:46;;;;;;;8.93;1.55;;;15.40;99.90;;;;;;5139525;27;20047;-57
2023/05/16 09:20:14;;;;;;;8.30;1.52;;;15.00;99.90;;;;;;5138684;27;20455;-57
2023/05/16 09:22:49;;;;;;;7.95;2.28;;;15.00;99.90;;;;;;5138108;27;20125;-57
2023/05/16 09:25:19;;;;;;;7.93;1.40;;;14.40;99.90;;;;;;5139688;27;20043;-56
2023/05/16 09:27:52;;;;;;;17.25;1.70;;;13.90;99.90;;;;;;5137604;27;20043;-57
2023/05/16 09:30:47;;;;;;;10.70;1.58;;;13.60;99.90;;;;;;5138643;27;20065;-58
2023/05/16 09:33:13;;;;;;;10.65;1.80;;;13.60;99.90;;;;;;5133514;27;20069;-56
2023/05/16 09:35:39;;;;;;;11.85;1.55;;;13.20;99.90;;;;;;5138167;27;20109;-57
2023/05/16 09:38:12;;;;;;;9.35;1.85;;;14.40;99.90;;;;;;5139454;27;20038;-57
2023/05/16 09:40:40;;;;;;;8.68;1.23;;;14.50;99.90;;;;;;5138734;27;20070;-57
2023/05/16 09:43:07;;;;;;;8.82;1.45;;;14.80;99.90;;;;;;5140233;27;20039;-57
2023/05/16 09:45:34;;;;;;;7.65;1.52;;;15.00;99.90;;;;;;5139229;27;20137;-57
2023/05/16 09:48:14;;;;;;;10.82;1.98;;;15.70;99.90;;;;;;5140106;27;20133;-57
2023/05/16 09:50:45;;;;;;;8.02;1.35;;;15.40;99.90;;;;;;5136788;27;20050;-57
2023/05/16 09:53:12;;;;;;;7.90;2.03;;;15.30;99.90;;;;;;5139473;27;20409;-57
2023/05/16 09:55:38;;;;;;;11.43;1.80;;;15.30;99.90;;;;;;5139292;27;20724;-57
2023/05/16 09:58:04;;;;;;;8.82;1.42;;;15.00;99.90;;;;;;5138452;27;20297;-57
2023/05/16 10:00:31;;;;;;;7.00;1.35;;;15.30;99.90;;;;;;5138166;27;20114;-57
2023/05/16 10:02:58;;;;;;;10.85;1.83;;;15.50;99.90;;;;;;5137328;27;20483;-57
2023/05/16 10:05:26;;;;;;;8.27;1.48;;;15.30;99.90;;;;;;5137630;27;20168;-56
2023/05/16 10:07:55;;;;;;;12.82;3.00;;;15.00;99.90;;;;;;5135484;27;20042;-57
2023/05/16 10:10:21;;;;;;;8.05;1.38;;;13.80;99.90;;;;;;5115334;27;20054;-57
2023/05/16 10:12:49;;;;;;;7.10;1.30;;;15.00;99.90;;;;;;5133417;27;20454;-59
2023/05/16 10:15:16;;;;;;;5.82;1.08;;;14.70;99.90;;;;;;5134659;27;20754;-57
2023/05/16 10:17:44;;;;;;;8.40;1.48;;;14.30;99.90;;;;;;5115893;27;20515;-57
2023/05/16 10:20:11;;;;;;;8.27;1.35;;;14.30;99.90;;;;;;5134214;27;20058;-57
2023/05/16 10:22:42;;;;;;;7.93;1.45;;;14.60;99.90;;;;;;5134492;27;20054;-57
2023/05/16 10:25:20;;;;;;;9.03;1.23;;;14.50;99.90;;;;;;5135889;27;20050;-57
2023/05/16 10:27:46;;;;;;;9.15;1.25;;;14.10;99.90;;;;;;5133284;27;20034;-57
2023/05/16 10:30:13;;;;;;;9.68;1.30;;;14.30;99.90;;;;;;5133993;27;20958;-56
2023/05/16 10:32:39;;;;;;;7.95;1.40;;;14.20;99.90;;;;;;5134247;27;20784;-57
2023/05/16 10:35:05;;;;;;;6.18;1.48;;;14.30;99.90;;;;;;5132025;27;20104;-57
2023/05/16 10:37:31;;;;;;;6.38;1.20;;;14.20;99.90;;;;;;5132747;27;20050;-57
2023/05/16 10:40:00;;;;;;;8.40;1.50;;;14.30;99.90;;;;;;5115279;27;20487;-58
2023/05/16 10:42:26;;;;;;;8.77;1.40;;;14.10;99.90;;;;;;5132733;27;20042;-56
2023/05/16 10:45:07;;;;;;;12.60;2.22;;;13.90;99.90;;;;;;5134553;27;20045;-57
2023/05/16 10:47:33;;;;;;;11.93;1.50;;;13.40;99.90;;;;;;5132424;27;20065;-57
2023/05/16 10:49:59;;;;;;;9.77;1.40;;;13.50;99.90;;;;;;5133474;27;20490;-57
2023/05/16 10:52:33;;;;;;;8.40;1.30;;;13.70;99.90;;;;;;5132690;27;20919;-57
2023/05/16 10:55:03;;;;;;;8.93;2.13;;;13.80;99.90;;;;;;5135559;27;20039;-57
2023/05/16 10:57:33;;;;;;;7.80;1.70;;;14.10;99.90;;;;;;5132872;27;20077;-57
2023/05/16 11:00:00;;;;;;;9.13;1.35;;;14.10;99.90;;;;;;5132598;27;20169;-57
2023/05/16 11:02:32;;;;;;;9.18;1.40;;;13.80;99.90;;;;;;5134685;27;20047;-57
2023/05/16 11:05:00;;;;;;;10.07;1.63;;;13.70;99.90;;;;;;5133828;27;20153;-57
2023/05/16 11:07:31;;;;;;;13.82;2.30;;;13.70;99.90;;;;;;5134377;27;20049;-58
2023/05/16 11:10:29;;;;;;;15.02;1.80;;;14.30;99.90;;;;;;5115352;27;20066;-57
2023/05/16 11:13:06;;;;;;;7.65;1.48;;;14.80;99.90;;;;;;5051908;27;20583;-56
2023/05/16 11:15:33;;;;;;;9.35;1.75;;;15.00;99.90;;;;;;5114763;27;20042;-57
2023/05/16 11:18:13;;;;;;;9.15;1.50;;;14.90;99.90;;;;;;5134328;27;20041;-57
2023/05/16 11:20:39;;;;;;;11.43;1.60;;;14.80;99.90;;;;;;5134865;27;20066;-57
2023/05/16 11:23:17;;;;;;;7.85;1.50;;;14.70;99.90;;;;;;5115192;27;20050;-56
2023/05/16 11:25:50;;;;;;;10.15;2.22;;;14.50;99.90;;;;;;5135084;27;20126;-57
2023/05/16 11:28:18;;;;;;;7.22;1.70;;;14.30;99.90;;;;;;5133371;27;20130;-56
2023/05/16 11:30:54;;;;;;;11.88;2.40;;;14.30;99.90;;;;;;5111619;27;20042;-57
2023/05/16 11:33:20;;;;;;;10.00;1.73;;;14.40;99.90;;;;;;5134785;27;20079;-57
2023/05/16 11:36:07;;;;;;;12.32;2.22;;;14.30;99.90;;;;;;5114879;27;20114;-57
2023/05/16 11:38:34;;;;;;;9.30;1.85;;;14.10;99.90;;;;;;5133159;27;20066;-57
2023/05/16 11:41:07;;;;;;;12.35;2.15;;;13.90;99.90;;;;;;5131574;27;20049;-57
2023/05/16 11:43:51;;;;;;;9.63;2.10;;;13.70;99.90;;;;;;5133553;27;20141;-57
2023/05/16 11:46:18;;;;;;;7.18;1.92;;;13.90;99.90;;;;;;5132591;27;20103;-57
2023/05/16 11:48:46;;;;;;;10.57;2.00;;;14.20;99.90;;;;;;5132296;27;20045;-57
2023/05/16 11:51:13;;;;;;;10.23;1.90;;;14.70;99.90;;;;;;5132068;27;20872;-56
2023/05/16 11:53:39;;;;;;;8.02;2.03;;;14.80;99.90;;;;;;5133566;27;20600;-57
2023/05/16 11:56:07;;;;;;;7.47;1.92;;;14.20;99.90;;;;;;5133903;27;20043;-56
2023/05/16 11:58:32;;;;;;;10.98;2.05;;;14.00;99.90;;;;;;5132493;27;20173;-57
2023/05/16 12:00:58;;;;;;;10.55;1.73;;;13.60;99.90;;;;;;5131559;27;20134;-57
2023/05/16 12:03:24;;;;;;;7.32;2.33;;;13.60;99.90;;;;;;5133158;27;20061;-57
2023/05/16 12:05:52;;;;;;;10.70;2.00;;;13.70;99.90;;;;;;5132680;27;20066;-57
2023/05/16 12:08:20;;;;;;;9.25;2.00;;;14.20;99.90;;;;;;5131722;27;20061;-57
2023/05/16 12:10:45;;;;;;;8.68;2.13;;;14.60;99.90;;;;;;5133743;27;20135;-57
2023/05/16 12:13:11;;;;;;;11.10;2.00;;;14.70;99.90;;;;;;5132410;27;20859;-57
2023/05/16 12:15:37;;;;;;;8.77;2.20;;;14.70;99.90;;;;;;5132869;27;20038;-57
2023/05/16 12:18:03;;;;;;;9.80;2.28;;;14.90;99.90;;;;;;5130741;27;20058;-57
2023/05/16 12:20:29;;;;;;;6.53;1.80;;;14.90;99.90;;;;;;5131780;27;20035;-57
2023/05/16 12:22:57;;;;;;;9.27;2.15;;;15.00;99.90;;;;;;5096839;27;20567;-57
2023/05/16 12:25:30;;;;;;;6.97;2.10;;;15.30;99.90;;;;;;5135187;27;20039;-57
2023/05/16 12:28:01;;;;;;;9.07;2.38;;;15.50;99.90;;;;;;5132695;27;20039;-58
2023/05/16 12:30:28;;;;;;;8.00;1.88;;;15.20;99.90;;;;;;5132882;27;20046;-57
2023/05/16 12:33:03;;;;;;;8.32;2.33;;;15.10;99.90;;;;;;5132963;27;20047;-57
2023/05/16 12:35:30;;;;;;;7.43;1.90;;;14.60;99.90;;;;;;5133869;27;20564;-57
2023/05/16 12:37:56;;;;;;;7.32;1.83;;;13.90;99.90;;;;;;5132271;27;20495;-57
2023/05/16 12:40:22;;;;;;;9.38;2.40;;;14.00;99.90;;;;;;5131968;27;20039;-57
2023/05/16 12:42:53;;;;;;;11.02;2.65;;;13.80;99.90;;;;;;5131171;27;20524;-57
2023/05/16 12:45:19;;;;;;;8.30;2.45;;;13.80;99.90;;;;;;5132438;27;20038;-57
2023/05/16 12:47:45;;;;;;;7.70;2.20;;;14.00;99.90;;;;;;5132652;27;20054;-57
2023/05/16 12:50:13;;;;;;;8.38;2.10;;;14.20;99.90;;;;;;5113130;27;20046;-57